sensor_id;sensor_type;location;lat;lon;timestamp;P1;durP1;ratioP1;P2;durP2;ratioP2
12383;SDS011;6256;63.808;20.336;2022-12-18T00:01:22;1.23;;;1.13;;
12383;SDS011;6256;63.808;20.336;2022-12-18T00:03:50;0.70;;;0.70;;
12383;SDS011;6256;63.808;20.336;2022-12-18T00:06:16;0.53;;;0.53;;
12383;SDS011;6256;63.808;20.336;2022-12-18T00:08:43;0.70;;;0.70;;
12383;SDS011;6256;63.808;20.336;2022-12-18T00:11:17;0.70;;;0.70;;
12383;SDS011;6256;63.808;20.336;2022-12-18T00:13:44;0.73;;;0.73;;
12383;SDS011;6256;63.808;20.336;2022-12-18T00:16:12;0.70;;;0.70;;
12383;SDS011;6256;63.808;20.336;2022-12-18T00:18:39;0.80;;;0.80;;
12383;SDS011;6256;63.808;20.336;2022-12-18T00:21:07;0.53;;;0.53;;
12383;SDS011;6256;63.808;20.336;2022-12-18T00:23:35;0.77;;;0.73;;
12383;SDS011;6256;63.808;20.336;2022-12-18T00:26:03;6.63;;;1.20;;
12383;SDS011;6256;63.808;20.336;2022-12-18T00:28:31;0.50;;;0.50;;
12383;SDS011;6256;63.808;20.336;2022-12-18T00:31:00;0.50;;;0.50;;
12383;SDS011;6256;63.808;20.336;2022-12-18T00:33:27;0.80;;;0.80;;
12383;SDS011;6256;63.808;20.336;2022-12-18T00:35:53;1.47;;;1.00;;
12383;SDS011;6256;63.808;20.336;2022-12-18T00:38:19;0.50;;;0.50;;
12383;SDS011;6256;63.808;20.336;2022-12-18T00:40:44;0.73;;;0.73;;
12383;SDS011;6256;63.808;20.336;2022-12-18T00:43:10;0.67;;;0.60;;
12383;SDS011;6256;63.808;20.336;2022-12-18T00:45:36;0.70;;;0.70;;
12383;SDS011;6256;63.808;20.336;2022-12-18T00:48:02;0.67;;;0.67;;
12383;SDS011;6256;63.808;20.336;2022-12-18T00:50:27;0.63;;;0.63;;
12383;SDS011;6256;63.808;20.336;2022-12-18T00:52:53;0.67;;;0.67;;
12383;SDS011;6256;63.808;20.336;2022-12-18T00:55:19;0.50;;;0.50;;
12383;SDS011;6256;63.808;20.336;2022-12-18T00:57:44;0.60;;;0.60;;
12383;SDS011;6256;63.808;20.336;2022-12-18T01:00:11;0.50;;;0.50;;
12383;SDS011;6256;63.808;20.336;2022-12-18T01:02:39;0.67;;;0.60;;
12383;SDS011;6256;63.808;20.336;2022-12-18T01:05:05;0.47;;;0.47;;
12383;SDS011;6256;63.808;20.336;2022-12-18T01:07:32;0.80;;;0.80;;
12383;SDS011;6256;63.808;20.336;2022-12-18T01:09:58;0.60;;;0.60;;
12383;SDS011;6256;63.808;20.336;2022-12-18T01:12:24;0.70;;;0.70;;
12383;SDS011;6256;63.808;20.336;2022-12-18T01:14:49;1.43;;;1.40;;
12383;SDS011;6256;63.808;20.336;2022-12-18T01:17:15;0.67;;;0.67;;
12383;SDS011;6256;63.808;20.336;2022-12-18T01:19:41;0.93;;;0.93;;
12383;SDS011;6256;63.808;20.336;2022-12-18T01:22:07;0.67;;;0.67;;
12383;SDS011;6256;63.808;20.336;2022-12-18T01:24:32;0.80;;;0.80;;
12383;SDS011;6256;63.808;20.336;2022-12-18T01:26:58;0.70;;;0.70;;
12383;SDS011;6256;63.808;20.336;2022-12-18T01:29:23;0.73;;;0.73;;
12383;SDS011;6256;63.808;20.336;2022-12-18T01:31:49;0.97;;;0.77;;
12383;SDS011;6256;63.808;20.336;2022-12-18T01:34:15;0.80;;;0.70;;
12383;SDS011;6256;63.808;20.336;2022-12-18T01:36:41;0.50;;;0.50;;
12383;SDS011;6256;63.808;20.336;2022-12-18T01:39:08;0.97;;;0.70;;
12383;SDS011;6256;63.808;20.336;2022-12-18T01:41:36;0.60;;;0.60;;
12383;SDS011;6256;63.808;20.336;2022-12-18T01:47:20;1.10;;;0.53;;
12383;SDS011;6256;63.808;20.336;2022-12-18T01:49:50;0.50;;;0.50;;
12383;SDS011;6256;63.808;20.336;2022-12-18T01:52:16;0.50;;;0.50;;
12383;SDS011;6256;63.808;20.336;2022-12-18T01:54:43;0.67;;;0.57;;
12383;SDS011;6256;63.808;20.336;2022-12-18T01:57:13;1.30;;;0.93;;
12383;SDS011;6256;63.808;20.336;2022-12-18T01:59:38;0.50;;;0.50;;
12383;SDS011;6256;63.808;20.336;2022-12-18T02:02:07;0.60;;;0.60;;
12383;SDS011;6256;63.808;20.336;2022-12-18T02:04:34;0.40;;;0.40;;
12383;SDS011;6256;63.808;20.336;2022-12-18T02:09:32;0.60;;;0.60;;
12383;SDS011;6256;63.808;20.336;2022-12-18T02:14:56;0.77;;;0.77;;
12383;SDS011;6256;63.808;20.336;2022-12-18T02:17:27;1.03;;;0.80;;
12383;SDS011;6256;63.808;20.336;2022-12-18T02:20:21;0.80;;;0.80;;
12383;SDS011;6256;63.808;20.336;2022-12-18T02:23:12;1.67;;;1.20;;
12383;SDS011;6256;63.808;20.336;2022-12-18T02:28:40;0.63;;;0.60;;
12383;SDS011;6256;63.808;20.336;2022-12-18T02:31:11;0.83;;;0.63;;
12383;SDS011;6256;63.808;20.336;2022-12-18T02:33:40;0.60;;;0.57;;
12383;SDS011;6256;63.808;20.336;2022-12-18T02:36:09;1.07;;;0.90;;
12383;SDS011;6256;63.808;20.336;2022-12-18T02:38:37;1.37;;;1.27;;
12383;SDS011;6256;63.808;20.336;2022-12-18T02:41:04;1.20;;;1.10;;
12383;SDS011;6256;63.808;20.336;2022-12-18T02:43:31;1.10;;;1.10;;
12383;SDS011;6256;63.808;20.336;2022-12-18T02:45:58;1.60;;;1.07;;
12383;SDS011;6256;63.808;20.336;2022-12-18T02:48:30;0.83;;;0.83;;
12383;SDS011;6256;63.808;20.336;2022-12-18T02:53:43;1.37;;;1.00;;
12383;SDS011;6256;63.808;20.336;2022-12-18T02:56:20;1.67;;;1.13;;
12383;SDS011;6256;63.808;20.336;2022-12-18T03:01:37;0.80;;;0.80;;
12383;SDS011;6256;63.808;20.336;2022-12-18T03:04:09;0.73;;;0.73;;
12383;SDS011;6256;63.808;20.336;2022-12-18T03:06:49;1.37;;;1.00;;
12383;SDS011;6256;63.808;20.336;2022-12-18T03:09:28;1.13;;;0.80;;
12383;SDS011;6256;63.808;20.336;2022-12-18T03:12:37;1.67;;;0.70;;
12383;SDS011;6256;63.808;20.336;2022-12-18T03:17:48;0.50;;;0.50;;
12383;SDS011;6256;63.808;20.336;2022-12-18T03:20:21;1.07;;;1.00;;
12383;SDS011;6256;63.808;20.336;2022-12-18T03:22:50;0.97;;;0.97;;
12383;SDS011;6256;63.808;20.336;2022-12-18T03:25:18;0.60;;;0.50;;
12383;SDS011;6256;63.808;20.336;2022-12-18T03:27:46;1.20;;;1.10;;
12383;SDS011;6256;63.808;20.336;2022-12-18T03:30:16;0.70;;;0.70;;
12383;SDS011;6256;63.808;20.336;2022-12-18T03:35:11;2.10;;;0.80;;
12383;SDS011;6256;63.808;20.336;2022-12-18T03:37:41;0.50;;;0.50;;
12383;SDS011;6256;63.808;20.336;2022-12-18T03:40:07;0.70;;;0.70;;
12383;SDS011;6256;63.808;20.336;2022-12-18T03:48:11;1.10;;;0.90;;
12383;SDS011;6256;63.808;20.336;2022-12-18T03:50:56;1.73;;;0.93;;
12383;SDS011;6256;63.808;20.336;2022-12-18T03:55:51;0.87;;;0.87;;
12383;SDS011;6256;63.808;20.336;2022-12-18T03:58:19;1.00;;;0.63;;
12383;SDS011;6256;63.808;20.336;2022-12-18T04:00:49;0.43;;;0.43;;
12383;SDS011;6256;63.808;20.336;2022-12-18T04:03:18;0.80;;;0.80;;
12383;SDS011;6256;63.808;20.336;2022-12-18T04:05:44;1.43;;;0.83;;
12383;SDS011;6256;63.808;20.336;2022-12-18T04:08:12;0.93;;;0.80;;
12383;SDS011;6256;63.808;20.336;2022-12-18T04:10:39;0.70;;;0.70;;
12383;SDS011;6256;63.808;20.336;2022-12-18T04:13:04;0.60;;;0.60;;
12383;SDS011;6256;63.808;20.336;2022-12-18T04:15:31;1.67;;;1.13;;
12383;SDS011;6256;63.808;20.336;2022-12-18T04:17:59;0.53;;;0.53;;
12383;SDS011;6256;63.808;20.336;2022-12-18T04:20:26;0.73;;;0.73;;
12383;SDS011;6256;63.808;20.336;2022-12-18T04:22:52;1.00;;;1.00;;
12383;SDS011;6256;63.808;20.336;2022-12-18T04:25:18;0.70;;;0.70;;
12383;SDS011;6256;63.808;20.336;2022-12-18T04:27:43;0.50;;;0.50;;
12383;SDS011;6256;63.808;20.336;2022-12-18T04:30:09;1.57;;;0.83;;
12383;SDS011;6256;63.808;20.336;2022-12-18T04:32:35;1.33;;;1.20;;
12383;SDS011;6256;63.808;20.336;2022-12-18T04:35:01;0.60;;;0.60;;
12383;SDS011;6256;63.808;20.336;2022-12-18T04:37:29;0.60;;;0.60;;
12383;SDS011;6256;63.808;20.336;2022-12-18T04:39:54;0.90;;;0.90;;
12383;SDS011;6256;63.808;20.336;2022-12-18T04:42:20;0.87;;;0.87;;
12383;SDS011;6256;63.808;20.336;2022-12-18T04:44:46;1.43;;;1.33;;
12383;SDS011;6256;63.808;20.336;2022-12-18T04:47:12;1.00;;;1.00;;
12383;SDS011;6256;63.808;20.336;2022-12-18T04:49:37;0.77;;;0.77;;
12383;SDS011;6256;63.808;20.336;2022-12-18T04:52:03;0.80;;;0.80;;
12383;SDS011;6256;63.808;20.336;2022-12-18T04:54:29;1.30;;;1.20;;
12383;SDS011;6256;63.808;20.336;2022-12-18T04:56:54;1.10;;;1.00;;
12383;SDS011;6256;63.808;20.336;2022-12-18T04:59:20;0.50;;;0.50;;
12383;SDS011;6256;63.808;20.336;2022-12-18T05:01:46;0.70;;;0.70;;
12383;SDS011;6256;63.808;20.336;2022-12-18T05:04:11;0.83;;;0.70;;
12383;SDS011;6256;63.808;20.336;2022-12-18T05:06:37;1.27;;;1.07;;
12383;SDS011;6256;63.808;20.336;2022-12-18T05:09:03;1.33;;;1.23;;
12383;SDS011;6256;63.808;20.336;2022-12-18T05:11:28;0.50;;;0.50;;
12383;SDS011;6256;63.808;20.336;2022-12-18T05:13:54;2.40;;;1.00;;
12383;SDS011;6256;63.808;20.336;2022-12-18T05:16:20;1.40;;;0.90;;
12383;SDS011;6256;63.808;20.336;2022-12-18T05:18:45;0.80;;;0.80;;
12383;SDS011;6256;63.808;20.336;2022-12-18T05:21:11;0.80;;;0.80;;
12383;SDS011;6256;63.808;20.336;2022-12-18T05:23:37;0.73;;;0.73;;
12383;SDS011;6256;63.808;20.336;2022-12-18T05:26:04;0.90;;;0.90;;
12383;SDS011;6256;63.808;20.336;2022-12-18T05:28:32;0.83;;;0.83;;
12383;SDS011;6256;63.808;20.336;2022-12-18T05:30:59;0.57;;;0.57;;
12383;SDS011;6256;63.808;20.336;2022-12-18T05:33:28;0.50;;;0.50;;
12383;SDS011;6256;63.808;20.336;2022-12-18T05:35:57;0.60;;;0.60;;
12383;SDS011;6256;63.808;20.336;2022-12-18T05:38:24;0.93;;;0.50;;
12383;SDS011;6256;63.808;20.336;2022-12-18T05:40:51;2.87;;;1.20;;
12383;SDS011;6256;63.808;20.336;2022-12-18T05:43:18;1.17;;;0.87;;
12383;SDS011;6256;63.808;20.336;2022-12-18T05:45:48;0.97;;;0.97;;
12383;SDS011;6256;63.808;20.336;2022-12-18T05:48:14;0.73;;;0.73;;
12383;SDS011;6256;63.808;20.336;2022-12-18T05:50:41;0.90;;;0.90;;
12383;SDS011;6256;63.808;20.336;2022-12-18T05:53:10;1.43;;;1.03;;
12383;SDS011;6256;63.808;20.336;2022-12-18T05:55:36;0.60;;;0.60;;
12383;SDS011;6256;63.808;20.336;2022-12-18T05:58:04;1.60;;;1.50;;
12383;SDS011;6256;63.808;20.336;2022-12-18T06:00:31;0.60;;;0.60;;
12383;SDS011;6256;63.808;20.336;2022-12-18T06:02:59;0.70;;;0.70;;
12383;SDS011;6256;63.808;20.336;2022-12-18T06:05:26;0.97;;;0.87;;
12383;SDS011;6256;63.808;20.336;2022-12-18T06:07:51;2.43;;;1.63;;
12383;SDS011;6256;63.808;20.336;2022-12-18T06:10:17;1.70;;;1.43;;
12383;SDS011;6256;63.808;20.336;2022-12-18T06:12:43;1.60;;;1.20;;
12383;SDS011;6256;63.808;20.336;2022-12-18T06:15:09;0.60;;;0.60;;
12383;SDS011;6256;63.808;20.336;2022-12-18T06:17:35;0.57;;;0.57;;
12383;SDS011;6256;63.808;20.336;2022-12-18T06:20:01;1.00;;;0.93;;
12383;SDS011;6256;63.808;20.336;2022-12-18T06:22:26;1.10;;;1.00;;
12383;SDS011;6256;63.808;20.336;2022-12-18T06:24:52;0.70;;;0.70;;
12383;SDS011;6256;63.808;20.336;2022-12-18T06:27:18;1.07;;;1.00;;
12383;SDS011;6256;63.808;20.336;2022-12-18T06:29:44;0.97;;;0.93;;
12383;SDS011;6256;63.808;20.336;2022-12-18T06:32:10;0.67;;;0.67;;
12383;SDS011;6256;63.808;20.336;2022-12-18T06:34:39;0.70;;;0.70;;
12383;SDS011;6256;63.808;20.336;2022-12-18T06:37:05;0.87;;;0.63;;
12383;SDS011;6256;63.808;20.336;2022-12-18T06:39:30;1.10;;;1.00;;
12383;SDS011;6256;63.808;20.336;2022-12-18T06:41:56;1.17;;;1.07;;
12383;SDS011;6256;63.808;20.336;2022-12-18T06:44:22;2.13;;;1.33;;
12383;SDS011;6256;63.808;20.336;2022-12-18T06:46:47;1.00;;;0.90;;
12383;SDS011;6256;63.808;20.336;2022-12-18T06:49:13;1.10;;;1.00;;
12383;SDS011;6256;63.808;20.336;2022-12-18T06:51:41;1.10;;;1.00;;
12383;SDS011;6256;63.808;20.336;2022-12-18T06:54:06;0.90;;;0.90;;
12383;SDS011;6256;63.808;20.336;2022-12-18T06:56:32;0.87;;;0.87;;
12383;SDS011;6256;63.808;20.336;2022-12-18T06:58:58;1.67;;;1.40;;
12383;SDS011;6256;63.808;20.336;2022-12-18T07:01:24;2.00;;;1.30;;
12383;SDS011;6256;63.808;20.336;2022-12-18T07:03:53;1.17;;;0.93;;
12383;SDS011;6256;63.808;20.336;2022-12-18T07:06:20;0.70;;;0.70;;
12383;SDS011;6256;63.808;20.336;2022-12-18T07:08:48;1.97;;;1.00;;
12383;SDS011;6256;63.808;20.336;2022-12-18T07:11:14;2.37;;;0.83;;
12383;SDS011;6256;63.808;20.336;2022-12-18T07:13:41;0.73;;;0.70;;
12383;SDS011;6256;63.808;20.336;2022-12-18T07:16:07;1.07;;;1.07;;
12383;SDS011;6256;63.808;20.336;2022-12-18T07:18:35;2.50;;;1.07;;
12383;SDS011;6256;63.808;20.336;2022-12-18T07:21:05;1.17;;;1.13;;
12383;SDS011;6256;63.808;20.336;2022-12-18T07:23:32;0.90;;;0.90;;
12383;SDS011;6256;63.808;20.336;2022-12-18T07:26:09;2.43;;;1.03;;
12383;SDS011;6256;63.808;20.336;2022-12-18T07:28:37;2.23;;;1.57;;
12383;SDS011;6256;63.808;20.336;2022-12-18T07:31:07;1.73;;;1.20;;
12383;SDS011;6256;63.808;20.336;2022-12-18T07:33:35;2.80;;;2.57;;
12383;SDS011;6256;63.808;20.336;2022-12-18T07:36:04;2.80;;;1.23;;
12383;SDS011;6256;63.808;20.336;2022-12-18T07:38:32;2.17;;;1.53;;
12383;SDS011;6256;63.808;20.336;2022-12-18T07:41:11;1.43;;;1.10;;
12383;SDS011;6256;63.808;20.336;2022-12-18T07:43:38;2.07;;;1.10;;
12383;SDS011;6256;63.808;20.336;2022-12-18T07:46:05;1.93;;;0.97;;
12383;SDS011;6256;63.808;20.336;2022-12-18T07:48:31;2.83;;;1.40;;
12383;SDS011;6256;63.808;20.336;2022-12-18T07:50:58;1.40;;;1.30;;
12383;SDS011;6256;63.808;20.336;2022-12-18T07:53:29;1.43;;;1.27;;
12383;SDS011;6256;63.808;20.336;2022-12-18T07:55:55;2.83;;;1.40;;
12383;SDS011;6256;63.808;20.336;2022-12-18T07:58:25;1.30;;;1.20;;
12383;SDS011;6256;63.808;20.336;2022-12-18T08:00:51;1.53;;;1.17;;
12383;SDS011;6256;63.808;20.336;2022-12-18T08:03:17;1.53;;;1.43;;
12383;SDS011;6256;63.808;20.336;2022-12-18T08:05:44;1.33;;;1.23;;
12383;SDS011;6256;63.808;20.336;2022-12-18T08:08:10;1.80;;;1.27;;
12383;SDS011;6256;63.808;20.336;2022-12-18T08:10:36;1.43;;;1.30;;
12383;SDS011;6256;63.808;20.336;2022-12-18T08:13:03;1.20;;;1.10;;
12383;SDS011;6256;63.808;20.336;2022-12-18T08:15:28;1.30;;;1.20;;
12383;SDS011;6256;63.808;20.336;2022-12-18T08:17:57;1.03;;;1.03;;
12383;SDS011;6256;63.808;20.336;2022-12-18T08:20:23;2.00;;;1.60;;
12383;SDS011;6256;63.808;20.336;2022-12-18T08:22:48;1.93;;;1.17;;
12383;SDS011;6256;63.808;20.336;2022-12-18T08:25:14;3.53;;;1.30;;
12383;SDS011;6256;63.808;20.336;2022-12-18T08:27:40;1.80;;;1.40;;
12383;SDS011;6256;63.808;20.336;2022-12-18T08:30:06;1.60;;;1.50;;
12383;SDS011;6256;63.808;20.336;2022-12-18T08:32:32;2.50;;;1.57;;
12383;SDS011;6256;63.808;20.336;2022-12-18T08:34:58;1.43;;;1.00;;
12383;SDS011;6256;63.808;20.336;2022-12-18T08:37:24;1.97;;;1.60;;
12383;SDS011;6256;63.808;20.336;2022-12-18T08:39:49;7.73;;;1.77;;
12383;SDS011;6256;63.808;20.336;2022-12-18T08:42:15;1.20;;;1.10;;
12383;SDS011;6256;63.808;20.336;2022-12-18T08:44:59;1.53;;;1.43;;
12383;SDS011;6256;63.808;20.336;2022-12-18T08:47:25;2.07;;;1.53;;
12383;SDS011;6256;63.808;20.336;2022-12-18T08:49:51;1.67;;;1.57;;
12383;SDS011;6256;63.808;20.336;2022-12-18T08:52:17;1.30;;;1.30;;
12383;SDS011;6256;63.808;20.336;2022-12-18T08:54:42;1.33;;;1.23;;
12383;SDS011;6256;63.808;20.336;2022-12-18T08:57:08;3.47;;;1.70;;
12383;SDS011;6256;63.808;20.336;2022-12-18T08:59:34;1.47;;;1.33;;
12383;SDS011;6256;63.808;20.336;2022-12-18T09:02:00;2.27;;;1.80;;
12383;SDS011;6256;63.808;20.336;2022-12-18T09:04:25;1.70;;;1.60;;
12383;SDS011;6256;63.808;20.336;2022-12-18T09:06:56;2.73;;;2.03;;
12383;SDS011;6256;63.808;20.336;2022-12-18T09:09:22;2.10;;;1.40;;
12383;SDS011;6256;63.808;20.336;2022-12-18T09:11:47;3.97;;;2.00;;
12383;SDS011;6256;63.808;20.336;2022-12-18T09:14:13;1.57;;;1.47;;
12383;SDS011;6256;63.808;20.336;2022-12-18T09:16:39;2.07;;;1.63;;
12383;SDS011;6256;63.808;20.336;2022-12-18T09:19:04;1.90;;;1.75;;
12383;SDS011;6256;63.808;20.336;2022-12-18T09:21:31;2.20;;;1.40;;
12383;SDS011;6256;63.808;20.336;2022-12-18T09:23:59;3.10;;;1.63;;
12383;SDS011;6256;63.808;20.336;2022-12-18T09:26:25;1.07;;;1.07;;
12383;SDS011;6256;63.808;20.336;2022-12-18T09:28:51;2.60;;;1.63;;
12383;SDS011;6256;63.808;20.336;2022-12-18T09:31:18;1.97;;;1.77;;
12383;SDS011;6256;63.808;20.336;2022-12-18T09:33:45;2.17;;;1.73;;
12383;SDS011;6256;63.808;20.336;2022-12-18T09:36:12;1.70;;;1.50;;
12383;SDS011;6256;63.808;20.336;2022-12-18T09:38:40;4.40;;;1.40;;
12383;SDS011;6256;63.808;20.336;2022-12-18T09:44:03;1.83;;;1.73;;
12383;SDS011;6256;63.808;20.336;2022-12-18T09:49:28;2.17;;;1.67;;
12383;SDS011;6256;63.808;20.336;2022-12-18T09:51:57;4.83;;;2.07;;
12383;SDS011;6256;63.808;20.336;2022-12-18T09:54:49;2.87;;;2.07;;
12383;SDS011;6256;63.808;20.336;2022-12-18T09:57:25;2.50;;;1.73;;
12383;SDS011;6256;63.808;20.336;2022-12-18T10:00:24;2.10;;;1.67;;
12383;SDS011;6256;63.808;20.336;2022-12-18T10:02:44;1.07;;;1.00;;
12383;SDS011;6256;63.808;20.336;2022-12-18T10:05:12;4.33;;;1.87;;
12383;SDS011;6256;63.808;20.336;2022-12-18T10:07:55;1.57;;;1.40;;
12383;SDS011;6256;63.808;20.336;2022-12-18T10:10:36;1.30;;;1.20;;
12383;SDS011;6256;63.808;20.336;2022-12-18T10:15:45;2.30;;;1.90;;
12383;SDS011;6256;63.808;20.336;2022-12-18T10:21:05;2.33;;;1.57;;
12383;SDS011;6256;63.808;20.336;2022-12-18T10:23:43;2.00;;;1.43;;
12383;SDS011;6256;63.808;20.336;2022-12-18T10:26:24;1.87;;;1.60;;
12383;SDS011;6256;63.808;20.336;2022-12-18T10:28:50;2.93;;;1.60;;
12383;SDS011;6256;63.808;20.336;2022-12-18T10:31:19;1.43;;;1.33;;
12383;SDS011;6256;63.808;20.336;2022-12-18T10:33:47;1.37;;;1.20;;
12383;SDS011;6256;63.808;20.336;2022-12-18T10:36:13;2.00;;;1.80;;
12383;SDS011;6256;63.808;20.336;2022-12-18T10:38:39;1.80;;;1.70;;
12383;SDS011;6256;63.808;20.336;2022-12-18T10:46:46;1.67;;;1.57;;
12383;SDS011;6256;63.808;20.336;2022-12-18T10:49:27;2.17;;;1.80;;
12383;SDS011;6256;63.808;20.336;2022-12-18T10:52:31;2.20;;;1.80;;
12383;SDS011;6256;63.808;20.336;2022-12-18T10:55:04;2.00;;;1.90;;
12383;SDS011;6256;63.808;20.336;2022-12-18T10:57:37;2.30;;;2.07;;
12383;SDS011;6256;63.808;20.336;2022-12-18T11:02:50;3.40;;;1.60;;
12383;SDS011;6256;63.808;20.336;2022-12-18T11:07:58;2.27;;;1.73;;
12383;SDS011;6256;63.808;20.336;2022-12-18T11:10:35;2.00;;;1.60;;
12383;SDS011;6256;63.808;20.336;2022-12-18T11:13:09;1.47;;;1.30;;
12383;SDS011;6256;63.808;20.336;2022-12-18T11:15:43;2.10;;;1.80;;
12383;SDS011;6256;63.808;20.336;2022-12-18T11:18:21;2.67;;;1.90;;
12383;SDS011;6256;63.808;20.336;2022-12-18T11:20:52;3.27;;;2.00;;
12383;SDS011;6256;63.808;20.336;2022-12-18T11:23:20;3.13;;;1.90;;
12383;SDS011;6256;63.808;20.336;2022-12-18T11:25:53;2.20;;;2.00;;
12383;SDS011;6256;63.808;20.336;2022-12-18T11:36:41;2.50;;;2.00;;
12383;SDS011;6256;63.808;20.336;2022-12-18T11:39:15;3.63;;;2.03;;
12383;SDS011;6256;63.808;20.336;2022-12-18T11:41:54;2.23;;;2.00;;
12383;SDS011;6256;63.808;20.336;2022-12-18T11:44:38;2.87;;;1.60;;
12383;SDS011;6256;63.808;20.336;2022-12-18T11:50:18;1.60;;;1.50;;
12383;SDS011;6256;63.808;20.336;2022-12-18T11:52:48;2.40;;;2.07;;
12383;SDS011;6256;63.808;20.336;2022-12-18T11:55:15;1.87;;;1.77;;
12383;SDS011;6256;63.808;20.336;2022-12-18T12:00:28;2.07;;;1.97;;
12383;SDS011;6256;63.808;20.336;2022-12-18T12:03:14;4.07;;;2.00;;
12383;SDS011;6256;63.808;20.336;2022-12-18T12:20:22;4.20;;;2.83;;
12383;SDS011;6256;63.808;20.336;2022-12-18T12:39:30;3.00;;;2.70;;
12383;SDS011;6256;63.808;20.336;2022-12-18T12:41:59;7.27;;;3.47;;
12383;SDS011;6256;63.808;20.336;2022-12-18T12:44:46;6.17;;;2.80;;
12383;SDS011;6256;63.808;20.336;2022-12-18T12:47:17;5.23;;;3.30;;
12383;SDS011;6256;63.808;20.336;2022-12-18T12:49:46;8.67;;;3.63;;
12383;SDS011;6256;63.808;20.336;2022-12-18T12:52:27;6.77;;;3.33;;
12383;SDS011;6256;63.808;20.336;2022-12-18T12:55:16;5.67;;;3.23;;
12383;SDS011;6256;63.808;20.336;2022-12-18T12:57:57;6.20;;;2.60;;
12383;SDS011;6256;63.808;20.336;2022-12-18T13:00:39;5.20;;;3.43;;
12383;SDS011;6256;63.808;20.336;2022-12-18T13:03:35;5.00;;;3.13;;
12383;SDS011;6256;63.808;20.336;2022-12-18T13:06:16;4.37;;;2.77;;
12383;SDS011;6256;63.808;20.336;2022-12-18T13:09:13;5.70;;;3.67;;
12383;SDS011;6256;63.808;20.336;2022-12-18T13:11:40;4.33;;;3.53;;
12383;SDS011;6256;63.808;20.336;2022-12-18T13:14:33;4.90;;;3.40;;
12383;SDS011;6256;63.808;20.336;2022-12-18T13:19:48;7.93;;;3.47;;
12383;SDS011;6256;63.808;20.336;2022-12-18T13:22:31;8.83;;;2.67;;
12383;SDS011;6256;63.808;20.336;2022-12-18T13:25:26;3.97;;;3.40;;
12383;SDS011;6256;63.808;20.336;2022-12-18T13:28:02;5.97;;;3.23;;
12383;SDS011;6256;63.808;20.336;2022-12-18T13:40:59;6.43;;;3.27;;
12383;SDS011;6256;63.808;20.336;2022-12-18T13:46:02;5.20;;;3.60;;
12383;SDS011;6256;63.808;20.336;2022-12-18T13:48:58;6.57;;;3.47;;
12383;SDS011;6256;63.808;20.336;2022-12-18T13:51:46;6.20;;;3.20;;
12383;SDS011;6256;63.808;20.336;2022-12-18T13:56:51;5.73;;;2.93;;
12383;SDS011;6256;63.808;20.336;2022-12-18T14:01:56;4.50;;;3.33;;
12383;SDS011;6256;63.808;20.336;2022-12-18T14:04:25;5.27;;;3.13;;
12383;SDS011;6256;63.808;20.336;2022-12-18T14:07:03;5.87;;;3.23;;
12383;SDS011;6256;63.808;20.336;2022-12-18T14:09:34;12.40;;;3.80;;
12383;SDS011;6256;63.808;20.336;2022-12-18T14:12:04;4.33;;;3.03;;
12383;SDS011;6256;63.808;20.336;2022-12-18T14:14:49;4.40;;;3.37;;
12383;SDS011;6256;63.808;20.336;2022-12-18T14:17:17;5.43;;;3.27;;
12383;SDS011;6256;63.808;20.336;2022-12-18T14:19:47;7.10;;;3.47;;
12383;SDS011;6256;63.808;20.336;2022-12-18T14:22:20;4.90;;;3.73;;
12383;SDS011;6256;63.808;20.336;2022-12-18T14:25:10;8.17;;;4.37;;
12383;SDS011;6256;63.808;20.336;2022-12-18T14:27:50;5.07;;;3.33;;
12383;SDS011;6256;63.808;20.336;2022-12-18T14:33:02;7.60;;;3.53;;
12383;SDS011;6256;63.808;20.336;2022-12-18T14:35:28;5.70;;;3.93;;
12383;SDS011;6256;63.808;20.336;2022-12-18T14:37:55;10.10;;;3.40;;
12383;SDS011;6256;63.808;20.336;2022-12-18T14:40:45;5.30;;;3.47;;
12383;SDS011;6256;63.808;20.336;2022-12-18T14:43:11;5.70;;;3.13;;
12383;SDS011;6256;63.808;20.336;2022-12-18T14:45:38;6.50;;;3.83;;
12383;SDS011;6256;63.808;20.336;2022-12-18T14:48:30;7.70;;;3.20;;
12383;SDS011;6256;63.808;20.336;2022-12-18T14:51:13;8.07;;;3.83;;
12383;SDS011;6256;63.808;20.336;2022-12-18T14:53:43;7.27;;;3.70;;
12383;SDS011;6256;63.808;20.336;2022-12-18T14:56:35;7.13;;;3.90;;
12383;SDS011;6256;63.808;20.336;2022-12-18T14:59:04;4.70;;;3.37;;
12383;SDS011;6256;63.808;20.336;2022-12-18T15:01:39;5.60;;;3.10;;
12383;SDS011;6256;63.808;20.336;2022-12-18T15:04:27;5.90;;;3.67;;
12383;SDS011;6256;63.808;20.336;2022-12-18T15:07:04;7.97;;;4.37;;
12383;SDS011;6256;63.808;20.336;2022-12-18T15:09:33;4.67;;;3.50;;
12383;SDS011;6256;63.808;20.336;2022-12-18T15:12:00;4.63;;;2.80;;
12383;SDS011;6256;63.808;20.336;2022-12-18T15:16:54;4.60;;;2.90;;
12383;SDS011;6256;63.808;20.336;2022-12-18T15:19:27;7.10;;;3.13;;
12383;SDS011;6256;63.808;20.336;2022-12-18T15:22:01;7.07;;;4.27;;
12383;SDS011;6256;63.808;20.336;2022-12-18T15:24:29;7.13;;;3.77;;
12383;SDS011;6256;63.808;20.336;2022-12-18T15:26:57;8.50;;;4.70;;
12383;SDS011;6256;63.808;20.336;2022-12-18T15:29:23;7.13;;;3.87;;
12383;SDS011;6256;63.808;20.336;2022-12-18T15:32:24;7.43;;;4.30;;
12383;SDS011;6256;63.808;20.336;2022-12-18T15:34:44;7.00;;;3.47;;
12383;SDS011;6256;63.808;20.336;2022-12-18T15:37:10;5.50;;;3.90;;
12383;SDS011;6256;63.808;20.336;2022-12-18T15:39:36;5.63;;;3.67;;
12383;SDS011;6256;63.808;20.336;2022-12-18T15:42:01;4.77;;;3.77;;
12383;SDS011;6256;63.808;20.336;2022-12-18T15:44:46;4.70;;;3.43;;
12383;SDS011;6256;63.808;20.336;2022-12-18T15:47:12;6.80;;;4.00;;
12383;SDS011;6256;63.808;20.336;2022-12-18T15:49:38;5.20;;;3.43;;
12383;SDS011;6256;63.808;20.336;2022-12-18T15:52:04;6.40;;;3.57;;
12383;SDS011;6256;63.808;20.336;2022-12-18T15:54:30;5.07;;;3.07;;
12383;SDS011;6256;63.808;20.336;2022-12-18T15:57:15;4.20;;;3.13;;
12383;SDS011;6256;63.808;20.336;2022-12-18T15:59:54;5.70;;;3.53;;
12383;SDS011;6256;63.808;20.336;2022-12-18T16:02:24;4.47;;;3.40;;
12383;SDS011;6256;63.808;20.336;2022-12-18T16:04:50;4.97;;;3.33;;
12383;SDS011;6256;63.808;20.336;2022-12-18T16:07:17;5.77;;;3.07;;
12383;SDS011;6256;63.808;20.336;2022-12-18T16:09:43;7.07;;;3.00;;
12383;SDS011;6256;63.808;20.336;2022-12-18T16:12:42;4.00;;;2.93;;
12383;SDS011;6256;63.808;20.336;2022-12-18T16:15:01;5.03;;;3.20;;
12383;SDS011;6256;63.808;20.336;2022-12-18T16:17:28;4.80;;;2.97;;
12383;SDS011;6256;63.808;20.336;2022-12-18T16:19:53;4.20;;;2.40;;
12383;SDS011;6256;63.808;20.336;2022-12-18T16:22:23;3.37;;;2.70;;
12383;SDS011;6256;63.808;20.336;2022-12-18T16:24:51;6.43;;;3.53;;
12383;SDS011;6256;63.808;20.336;2022-12-18T16:27:18;4.40;;;2.93;;
12383;SDS011;6256;63.808;20.336;2022-12-18T16:29:45;3.73;;;2.50;;
12383;SDS011;6256;63.808;20.336;2022-12-18T16:32:12;3.53;;;2.80;;
12383;SDS011;6256;63.808;20.336;2022-12-18T16:34:40;5.27;;;2.90;;
12383;SDS011;6256;63.808;20.336;2022-12-18T16:37:07;5.00;;;3.00;;
12383;SDS011;6256;63.808;20.336;2022-12-18T16:39:34;4.27;;;3.00;;
12383;SDS011;6256;63.808;20.336;2022-12-18T16:42:15;5.03;;;2.80;;
12383;SDS011;6256;63.808;20.336;2022-12-18T16:44:44;4.57;;;3.30;;
12383;SDS011;6256;63.808;20.336;2022-12-18T16:47:11;3.77;;;2.77;;
12383;SDS011;6256;63.808;20.336;2022-12-18T16:49:37;4.70;;;2.80;;
12383;SDS011;6256;63.808;20.336;2022-12-18T16:52:03;3.50;;;2.43;;
12383;SDS011;6256;63.808;20.336;2022-12-18T16:54:30;4.93;;;2.43;;
12383;SDS011;6256;63.808;20.336;2022-12-18T16:56:57;5.20;;;2.80;;
12383;SDS011;6256;63.808;20.336;2022-12-18T16:59:24;4.07;;;2.60;;
12383;SDS011;6256;63.808;20.336;2022-12-18T17:01:50;3.90;;;2.60;;
12383;SDS011;6256;63.808;20.336;2022-12-18T17:04:16;4.73;;;2.17;;
12383;SDS011;6256;63.808;20.336;2022-12-18T17:06:43;8.07;;;3.57;;
12383;SDS011;6256;63.808;20.336;2022-12-18T17:09:15;5.67;;;2.47;;